sensor_id;sensor_type;location;lat;lon;timestamp;P1;durP1;ratioP1;P2;durP2;ratioP2
27313;SDS011;14800;48.174;9.798;2023-07-08T00:02:07;13.38;;;6.18;;
27313;SDS011;14800;48.174;9.798;2023-07-08T00:04:34;8.88;;;6.20;;
27313;SDS011;14800;48.174;9.798;2023-07-08T00:07:00;10.25;;;5.95;;
27313;SDS011;14800;48.174;9.798;2023-07-08T00:09:25;7.45;;;5.88;;
27313;SDS011;14800;48.174;9.798;2023-07-08T00:11:51;10.40;;;6.50;;
27313;SDS011;14800;48.174;9.798;2023-07-08T00:14:17;9.57;;;6.13;;
27313;SDS011;14800;48.174;9.798;2023-07-08T00:16:43;7.22;;;5.88;;
27313;SDS011;14800;48.174;9.798;2023-07-08T00:19:09;9.40;;;6.00;;
27313;SDS011;14800;48.174;9.798;2023-07-08T00:21:35;10.32;;;6.18;;
27313;SDS011;14800;48.174;9.798;2023-07-08T00:24:01;7.40;;;5.82;;
27313;SDS011;14800;48.174;9.798;2023-07-08T00:26:29;8.73;;;6.45;;
27313;SDS011;14800;48.174;9.798;2023-07-08T00:28:55;9.00;;;6.43;;
27313;SDS011;14800;48.174;9.798;2023-07-08T00:31:24;8.50;;;6.35;;
27313;SDS011;14800;48.174;9.798;2023-07-08T00:33:50;10.07;;;6.22;;
27313;SDS011;14800;48.174;9.798;2023-07-08T00:36:21;9.40;;;6.53;;
27313;SDS011;14800;48.174;9.798;2023-07-08T00:38:48;10.48;;;6.28;;
27313;SDS011;14800;48.174;9.798;2023-07-08T00:41:36;10.13;;;6.60;;
27313;SDS011;14800;48.174;9.798;2023-07-08T00:44:01;10.50;;;6.63;;
27313;SDS011;14800;48.174;9.798;2023-07-08T00:48:57;9.50;;;6.43;;
27313;SDS011;14800;48.174;9.798;2023-07-08T00:51:39;8.02;;;6.03;;
27313;SDS011;14800;48.174;9.798;2023-07-08T00:54:09;11.27;;;6.57;;
27313;SDS011;14800;48.174;9.798;2023-07-08T00:56:44;7.88;;;6.00;;
27313;SDS011;14800;48.174;9.798;2023-07-08T00:59:25;8.93;;;6.40;;
27313;SDS011;14800;48.174;9.798;2023-07-08T01:01:54;8.98;;;6.45;;
27313;SDS011;14800;48.174;9.798;2023-07-08T01:04:30;9.00;;;6.28;;
27313;SDS011;14800;48.174;9.798;2023-07-08T01:07:03;8.75;;;5.97;;
27313;SDS011;14800;48.174;9.798;2023-07-08T01:09:33;8.45;;;6.07;;
27313;SDS011;14800;48.174;9.798;2023-07-08T01:12:08;8.05;;;6.25;;
27313;SDS011;14800;48.174;9.798;2023-07-08T01:14:36;8.43;;;6.30;;
27313;SDS011;14800;48.174;9.798;2023-07-08T01:17:04;9.45;;;6.28;;
27313;SDS011;14800;48.174;9.798;2023-07-08T01:19:29;13.07;;;6.10;;
27313;SDS011;14800;48.174;9.798;2023-07-08T01:22:00;7.55;;;5.60;;
27313;SDS011;14800;48.174;9.798;2023-07-08T01:24:28;11.38;;;6.13;;
27313;SDS011;14800;48.174;9.798;2023-07-08T01:26:56;9.20;;;6.25;;
27313;SDS011;14800;48.174;9.798;2023-07-08T01:29:22;9.88;;;6.50;;
27313;SDS011;14800;48.174;9.798;2023-07-08T01:31:48;9.38;;;6.60;;
27313;SDS011;14800;48.174;9.798;2023-07-08T01:34:14;11.13;;;6.57;;
27313;SDS011;14800;48.174;9.798;2023-07-08T01:36:42;12.07;;;6.47;;
27313;SDS011;14800;48.174;9.798;2023-07-08T01:39:14;8.00;;;6.00;;
27313;SDS011;14800;48.174;9.798;2023-07-08T01:41:43;11.25;;;6.15;;
27313;SDS011;14800;48.174;9.798;2023-07-08T01:46:54;10.13;;;6.25;;
27313;SDS011;14800;48.174;9.798;2023-07-08T01:49:21;10.75;;;6.50;;
27313;SDS011;14800;48.174;9.798;2023-07-08T01:51:48;9.02;;;6.70;;
27313;SDS011;14800;48.174;9.798;2023-07-08T01:54:14;11.13;;;6.35;;
27313;SDS011;14800;48.174;9.798;2023-07-08T01:56:40;13.48;;;6.97;;
27313;SDS011;14800;48.174;9.798;2023-07-08T01:59:05;11.25;;;6.47;;
27313;SDS011;14800;48.174;9.798;2023-07-08T02:01:31;10.23;;;6.78;;
27313;SDS011;14800;48.174;9.798;2023-07-08T02:03:56;11.07;;;6.50;;
27313;SDS011;14800;48.174;9.798;2023-07-08T02:06:22;11.88;;;6.43;;
27313;SDS011;14800;48.174;9.798;2023-07-08T02:08:48;9.07;;;6.70;;
27313;SDS011;14800;48.174;9.798;2023-07-08T02:11:15;9.80;;;6.75;;
27313;SDS011;14800;48.174;9.798;2023-07-08T02:13:40;8.73;;;6.88;;
27313;SDS011;14800;48.174;9.798;2023-07-08T02:16:06;8.60;;;6.07;;
27313;SDS011;14800;48.174;9.798;2023-07-08T02:18:32;10.30;;;6.57;;
27313;SDS011;14800;48.174;9.798;2023-07-08T02:20:58;11.52;;;6.88;;
27313;SDS011;14800;48.174;9.798;2023-07-08T02:23:24;9.05;;;6.57;;
27313;SDS011;14800;48.174;9.798;2023-07-08T02:25:54;10.20;;;6.50;;
27313;SDS011;14800;48.174;9.798;2023-07-08T02:28:20;11.15;;;6.70;;
27313;SDS011;14800;48.174;9.798;2023-07-08T02:30:46;10.10;;;6.20;;
27313;SDS011;14800;48.174;9.798;2023-07-08T02:33:12;9.35;;;6.38;;
27313;SDS011;14800;48.174;9.798;2023-07-08T02:35:39;15.27;;;6.78;;
27313;SDS011;14800;48.174;9.798;2023-07-08T02:38:05;8.52;;;6.03;;
27313;SDS011;14800;48.174;9.798;2023-07-08T02:40:31;11.40;;;6.78;;
27313;SDS011;14800;48.174;9.798;2023-07-08T02:42:56;10.68;;;6.40;;
27313;SDS011;14800;48.174;9.798;2023-07-08T02:45:22;9.30;;;6.20;;
27313;SDS011;14800;48.174;9.798;2023-07-08T02:47:47;7.88;;;5.70;;
27313;SDS011;14800;48.174;9.798;2023-07-08T02:50:13;10.45;;;5.93;;
27313;SDS011;14800;48.174;9.798;2023-07-08T02:52:39;8.38;;;6.15;;
27313;SDS011;14800;48.174;9.798;2023-07-08T02:55:05;11.15;;;6.55;;
27313;SDS011;14800;48.174;9.798;2023-07-08T02:57:30;7.82;;;5.80;;
27313;SDS011;14800;48.174;9.798;2023-07-08T02:59:56;10.32;;;6.10;;
27313;SDS011;14800;48.174;9.798;2023-07-08T03:02:22;10.73;;;6.13;;
27313;SDS011;14800;48.174;9.798;2023-07-08T03:04:48;8.45;;;6.38;;
27313;SDS011;14800;48.174;9.798;2023-07-08T03:07:15;19.23;;;9.27;;
27313;SDS011;14800;48.174;9.798;2023-07-08T03:09:41;21.98;;;10.30;;
27313;SDS011;14800;48.174;9.798;2023-07-08T03:12:07;13.88;;;6.93;;
27313;SDS011;14800;48.174;9.798;2023-07-08T03:14:34;7.75;;;5.70;;
27313;SDS011;14800;48.174;9.798;2023-07-08T03:17:00;7.82;;;5.63;;
27313;SDS011;14800;48.174;9.798;2023-07-08T03:19:26;9.07;;;5.80;;
27313;SDS011;14800;48.174;9.798;2023-07-08T03:21:51;8.52;;;6.20;;
27313;SDS011;14800;48.174;9.798;2023-07-08T03:24:17;10.25;;;6.50;;
27313;SDS011;14800;48.174;9.798;2023-07-08T03:26:44;10.52;;;5.50;;
27313;SDS011;14800;48.174;9.798;2023-07-08T03:29:17;8.10;;;5.72;;
27313;SDS011;14800;48.174;9.798;2023-07-08T03:31:43;12.45;;;6.18;;
27313;SDS011;14800;48.174;9.798;2023-07-08T03:34:10;9.82;;;5.72;;
27313;SDS011;14800;48.174;9.798;2023-07-08T03:36:47;9.18;;;6.47;;
27313;SDS011;14800;48.174;9.798;2023-07-08T03:39:23;10.70;;;6.40;;
27313;SDS011;14800;48.174;9.798;2023-07-08T03:41:50;8.40;;;6.03;;
27313;SDS011;14800;48.174;9.798;2023-07-08T03:44:17;8.30;;;5.13;;
27313;SDS011;14800;48.174;9.798;2023-07-08T03:46:43;8.00;;;5.05;;
27313;SDS011;14800;48.174;9.798;2023-07-08T03:49:10;8.80;;;4.75;;
27313;SDS011;14800;48.174;9.798;2023-07-08T03:51:36;8.18;;;5.82;;
27313;SDS011;14800;48.174;9.798;2023-07-08T03:54:04;10.57;;;6.93;;
27313;SDS011;14800;48.174;9.798;2023-07-08T03:56:31;10.32;;;7.38;;
27313;SDS011;14800;48.174;9.798;2023-07-08T03:58:57;12.43;;;7.32;;
27313;SDS011;14800;48.174;9.798;2023-07-08T04:01:23;12.07;;;7.63;;
27313;SDS011;14800;48.174;9.798;2023-07-08T04:03:51;12.85;;;6.95;;
27313;SDS011;14800;48.174;9.798;2023-07-08T04:06:18;11.98;;;7.65;;
27313;SDS011;14800;48.174;9.798;2023-07-08T04:08:44;10.05;;;7.07;;
27313;SDS011;14800;48.174;9.798;2023-07-08T04:11:13;13.63;;;7.53;;
27313;SDS011;14800;48.174;9.798;2023-07-08T04:13:41;9.80;;;7.10;;
27313;SDS011;14800;48.174;9.798;2023-07-08T04:16:07;11.60;;;7.50;;
27313;SDS011;14800;48.174;9.798;2023-07-08T04:18:39;10.90;;;7.25;;
27313;SDS011;14800;48.174;9.798;2023-07-08T04:21:04;15.15;;;10.80;;
27313;SDS011;14800;48.174;9.798;2023-07-08T04:23:31;12.30;;;7.80;;
27313;SDS011;14800;48.174;9.798;2023-07-08T04:25:57;10.25;;;7.45;;
27313;SDS011;14800;48.174;9.798;2023-07-08T04:28:23;9.90;;;7.47;;
27313;SDS011;14800;48.174;9.798;2023-07-08T04:30:48;12.23;;;7.68;;
27313;SDS011;14800;48.174;9.798;2023-07-08T04:33:14;11.25;;;7.60;;
27313;SDS011;14800;48.174;9.798;2023-07-08T04:35:40;11.32;;;7.57;;
27313;SDS011;14800;48.174;9.798;2023-07-08T04:38:18;12.98;;;7.25;;
27313;SDS011;14800;48.174;9.798;2023-07-08T04:40:46;14.98;;;7.63;;
27313;SDS011;14800;48.174;9.798;2023-07-08T04:43:12;10.10;;;7.22;;
27313;SDS011;14800;48.174;9.798;2023-07-08T04:45:38;11.38;;;7.30;;
27313;SDS011;14800;48.174;9.798;2023-07-08T04:48:05;10.32;;;6.97;;
27313;SDS011;14800;48.174;9.798;2023-07-08T04:50:38;12.77;;;7.25;;
27313;SDS011;14800;48.174;9.798;2023-07-08T04:53:04;9.38;;;6.97;;
27313;SDS011;14800;48.174;9.798;2023-07-08T04:55:30;11.02;;;7.30;;
27313;SDS011;14800;48.174;9.798;2023-07-08T04:57:56;9.55;;;7.22;;
27313;SDS011;14800;48.174;9.798;2023-07-08T05:00:21;9.65;;;6.78;;
27313;SDS011;14800;48.174;9.798;2023-07-08T05:02:47;8.60;;;5.97;;
27313;SDS011;14800;48.174;9.798;2023-07-08T05:05:13;11.18;;;6.22;;
27313;SDS011;14800;48.174;9.798;2023-07-08T05:07:38;8.38;;;6.30;;
27313;SDS011;14800;48.174;9.798;2023-07-08T05:10:04;8.02;;;5.95;;
27313;SDS011;14800;48.174;9.798;2023-07-08T05:12:30;9.68;;;5.97;;
27313;SDS011;14800;48.174;9.798;2023-07-08T05:14:56;8.30;;;5.97;;
27313;SDS011;14800;48.174;9.798;2023-07-08T05:17:21;8.15;;;5.82;;
27313;SDS011;14800;48.174;9.798;2023-07-08T05:19:47;7.57;;;5.20;;
27313;SDS011;14800;48.174;9.798;2023-07-08T05:22:15;6.50;;;4.82;;
27313;SDS011;14800;48.174;9.798;2023-07-08T05:24:43;6.65;;;4.78;;
27313;SDS011;14800;48.174;9.798;2023-07-08T05:27:08;6.18;;;4.95;;
27313;SDS011;14800;48.174;9.798;2023-07-08T05:29:34;6.22;;;4.30;;
27313;SDS011;14800;48.174;9.798;2023-07-08T05:32:00;6.82;;;4.75;;
27313;SDS011;14800;48.174;9.798;2023-07-08T05:34:25;6.47;;;4.85;;
27313;SDS011;14800;48.174;9.798;2023-07-08T05:36:51;8.45;;;4.72;;
27313;SDS011;14800;48.174;9.798;2023-07-08T05:39:16;8.15;;;4.50;;
27313;SDS011;14800;48.174;9.798;2023-07-08T05:41:42;6.97;;;4.97;;
27313;SDS011;14800;48.174;9.798;2023-07-08T05:44:07;6.90;;;4.88;;
27313;SDS011;14800;48.174;9.798;2023-07-08T05:46:33;7.75;;;5.10;;
27313;SDS011;14800;48.174;9.798;2023-07-08T05:48:59;6.75;;;4.90;;
27313;SDS011;14800;48.174;9.798;2023-07-08T05:51:24;8.07;;;5.10;;
27313;SDS011;14800;48.174;9.798;2023-07-08T05:53:50;7.03;;;5.15;;
27313;SDS011;14800;48.174;9.798;2023-07-08T05:56:15;9.05;;;5.10;;
27313;SDS011;14800;48.174;9.798;2023-07-08T05:58:41;9.10;;;4.93;;
27313;SDS011;14800;48.174;9.798;2023-07-08T06:01:06;7.68;;;4.68;;
27313;SDS011;14800;48.174;9.798;2023-07-08T06:03:32;8.38;;;5.13;;
27313;SDS011;14800;48.174;9.798;2023-07-08T06:05:57;6.88;;;5.10;;
27313;SDS011;14800;48.174;9.798;2023-07-08T06:08:23;8.02;;;4.93;;
27313;SDS011;14800;48.174;9.798;2023-07-08T06:10:49;6.75;;;4.63;;
27313;SDS011;14800;48.174;9.798;2023-07-08T06:13:15;6.47;;;4.65;;
27313;SDS011;14800;48.174;9.798;2023-07-08T06:15:41;8.63;;;4.53;;
27313;SDS011;14800;48.174;9.798;2023-07-08T06:18:06;7.25;;;4.68;;
27313;SDS011;14800;48.174;9.798;2023-07-08T06:20:32;7.22;;;4.55;;
27313;SDS011;14800;48.174;9.798;2023-07-08T06:22:58;5.40;;;4.05;;
27313;SDS011;14800;48.174;9.798;2023-07-08T06:25:24;6.57;;;4.18;;
27313;SDS011;14800;48.174;9.798;2023-07-08T06:27:50;7.22;;;4.78;;
27313;SDS011;14800;48.174;9.798;2023-07-08T06:30:16;7.13;;;4.25;;
27313;SDS011;14800;48.174;9.798;2023-07-08T06:32:41;10.65;;;4.55;;
27313;SDS011;14800;48.174;9.798;2023-07-08T06:35:07;5.28;;;3.90;;
27313;SDS011;14800;48.174;9.798;2023-07-08T06:37:33;5.03;;;4.07;;
27313;SDS011;14800;48.174;9.798;2023-07-08T06:39:58;6.75;;;4.22;;
27313;SDS011;14800;48.174;9.798;2023-07-08T06:42:24;9.25;;;4.20;;
27313;SDS011;14800;48.174;9.798;2023-07-08T06:44:50;9.13;;;4.40;;
27313;SDS011;14800;48.174;9.798;2023-07-08T06:47:17;7.10;;;4.13;;
27313;SDS011;14800;48.174;9.798;2023-07-08T06:49:45;6.18;;;4.13;;
27313;SDS011;14800;48.174;9.798;2023-07-08T06:52:11;9.30;;;4.50;;
27313;SDS011;14800;48.174;9.798;2023-07-08T06:54:36;7.10;;;4.50;;
27313;SDS011;14800;48.174;9.798;2023-07-08T06:57:02;6.15;;;4.30;;
27313;SDS011;14800;48.174;9.798;2023-07-08T06:59:28;7.95;;;4.13;;
27313;SDS011;14800;48.174;9.798;2023-07-08T07:01:53;7.90;;;4.18;;
27313;SDS011;14800;48.174;9.798;2023-07-08T07:04:19;9.25;;;4.82;;
27313;SDS011;14800;48.174;9.798;2023-07-08T07:06:45;5.90;;;4.15;;
27313;SDS011;14800;48.174;9.798;2023-07-08T07:09:10;7.78;;;4.47;;
27313;SDS011;14800;48.174;9.798;2023-07-08T07:11:36;9.27;;;4.10;;
27313;SDS011;14800;48.174;9.798;2023-07-08T07:14:02;6.63;;;4.55;;
27313;SDS011;14800;48.174;9.798;2023-07-08T07:16:27;8.43;;;4.20;;
27313;SDS011;14800;48.174;9.798;2023-07-08T07:18:53;6.28;;;4.47;;
27313;SDS011;14800;48.174;9.798;2023-07-08T07:21:18;7.53;;;4.35;;
27313;SDS011;14800;48.174;9.798;2023-07-08T07:23:44;8.98;;;3.88;;
27313;SDS011;14800;48.174;9.798;2023-07-08T07:26:10;6.88;;;4.00;;
27313;SDS011;14800;48.174;9.798;2023-07-08T07:28:36;6.45;;;4.30;;
27313;SDS011;14800;48.174;9.798;2023-07-08T07:31:01;6.75;;;4.20;;
27313;SDS011;14800;48.174;9.798;2023-07-08T07:33:28;9.43;;;4.47;;
27313;SDS011;14800;48.174;9.798;2023-07-08T07:35:54;7.97;;;4.30;;
27313;SDS011;14800;48.174;9.798;2023-07-08T07:38:20;7.72;;;4.68;;
27313;SDS011;14800;48.174;9.798;2023-07-08T07:40:46;6.15;;;4.18;;
27313;SDS011;14800;48.174;9.798;2023-07-08T07:43:11;6.13;;;4.00;;
27313;SDS011;14800;48.174;9.798;2023-07-08T07:45:37;9.07;;;4.45;;
27313;SDS011;14800;48.174;9.798;2023-07-08T07:48:03;6.22;;;3.90;;
27313;SDS011;14800;48.174;9.798;2023-07-08T07:50:29;5.43;;;3.88;;
27313;SDS011;14800;48.174;9.798;2023-07-08T07:52:55;6.72;;;4.18;;
27313;SDS011;14800;48.174;9.798;2023-07-08T07:55:21;6.75;;;4.28;;
27313;SDS011;14800;48.174;9.798;2023-07-08T07:57:47;9.77;;;4.18;;
27313;SDS011;14800;48.174;9.798;2023-07-08T08:00:12;7.00;;;3.95;;
27313;SDS011;14800;48.174;9.798;2023-07-08T08:02:41;7.47;;;4.45;;
27313;SDS011;14800;48.174;9.798;2023-07-08T08:05:07;5.68;;;4.10;;
27313;SDS011;14800;48.174;9.798;2023-07-08T08:07:32;9.05;;;4.30;;
27313;SDS011;14800;48.174;9.798;2023-07-08T08:09:58;6.22;;;4.13;;
27313;SDS011;14800;48.174;9.798;2023-07-08T08:12:24;5.68;;;4.10;;
27313;SDS011;14800;48.174;9.798;2023-07-08T08:14:50;9.32;;;4.28;;
27313;SDS011;14800;48.174;9.798;2023-07-08T08:17:16;6.18;;;4.30;;
27313;SDS011;14800;48.174;9.798;2023-07-08T08:19:41;8.40;;;4.45;;
27313;SDS011;14800;48.174;9.798;2023-07-08T08:22:07;5.63;;;4.15;;
27313;SDS011;14800;48.174;9.798;2023-07-08T08:24:33;5.63;;;3.92;;
27313;SDS011;14800;48.174;9.798;2023-07-08T08:26:59;6.13;;;4.28;;
27313;SDS011;14800;48.174;9.798;2023-07-08T08:29:25;6.53;;;4.30;;
27313;SDS011;14800;48.174;9.798;2023-07-08T08:31:50;6.35;;;4.18;;
27313;SDS011;14800;48.174;9.798;2023-07-08T08:34:16;5.90;;;4.38;;
27313;SDS011;14800;48.174;9.798;2023-07-08T08:36:42;8.73;;;4.47;;
27313;SDS011;14800;48.174;9.798;2023-07-08T08:39:08;5.80;;;3.83;;
27313;SDS011;14800;48.174;9.798;2023-07-08T08:41:35;8.35;;;4.45;;
27313;SDS011;14800;48.174;9.798;2023-07-08T08:44:02;8.35;;;4.78;;
27313;SDS011;14800;48.174;9.798;2023-07-08T08:52:09;6.13;;;3.88;;
27313;SDS011;14800;48.174;9.798;2023-07-08T08:54:35;8.50;;;3.78;;
27313;SDS011;14800;48.174;9.798;2023-07-08T08:57:37;11.07;;;3.78;;
27313;SDS011;14800;48.174;9.798;2023-07-08T09:00:00;4.68;;;3.50;;
27313;SDS011;14800;48.174;9.798;2023-07-08T09:04:51;9.93;;;3.92;;
27313;SDS011;14800;48.174;9.798;2023-07-08T09:07:18;5.75;;;3.58;;
27313;SDS011;14800;48.174;9.798;2023-07-08T09:10:00;5.88;;;3.17;;
27313;SDS011;14800;48.174;9.798;2023-07-08T09:12:28;5.63;;;3.50;;
27313;SDS011;14800;48.174;9.798;2023-07-08T09:14:55;4.38;;;3.38;;
27313;SDS011;14800;48.174;9.798;2023-07-08T09:17:29;5.97;;;3.60;;
27313;SDS011;14800;48.174;9.798;2023-07-08T09:22:46;6.72;;;3.15;;
27313;SDS011;14800;48.174;9.798;2023-07-08T09:25:43;4.97;;;3.38;;
27313;SDS011;14800;48.174;9.798;2023-07-08T09:30:41;4.18;;;3.08;;
27313;SDS011;14800;48.174;9.798;2023-07-08T09:33:11;3.15;;;2.80;;
27313;SDS011;14800;48.174;9.798;2023-07-08T09:35:41;4.10;;;2.83;;
27313;SDS011;14800;48.174;9.798;2023-07-08T09:38:11;5.07;;;2.88;;
27313;SDS011;14800;48.174;9.798;2023-07-08T09:40:49;5.03;;;3.00;;
27313;SDS011;14800;48.174;9.798;2023-07-08T09:45:51;3.63;;;2.70;;
27313;SDS011;14800;48.174;9.798;2023-07-08T09:48:25;3.15;;;2.60;;
27313;SDS011;14800;48.174;9.798;2023-07-08T09:50:53;3.83;;;2.60;;
27313;SDS011;14800;48.174;9.798;2023-07-08T09:53:20;3.83;;;2.78;;
27313;SDS011;14800;48.174;9.798;2023-07-08T09:55:46;4.43;;;3.03;;
27313;SDS011;14800;48.174;9.798;2023-07-08T09:58:33;4.60;;;3.10;;
27313;SDS011;14800;48.174;9.798;2023-07-08T10:01:19;4.53;;;3.15;;
27313;SDS011;14800;48.174;9.798;2023-07-08T10:03:48;6.18;;;2.97;;
27313;SDS011;14800;48.174;9.798;2023-07-08T10:06:18;6.28;;;3.08;;
27313;SDS011;14800;48.174;9.798;2023-07-08T10:08:47;5.93;;;2.67;;
27313;SDS011;14800;48.174;9.798;2023-07-08T10:13:53;4.22;;;2.67;;
27313;SDS011;14800;48.174;9.798;2023-07-08T10:16:24;4.75;;;3.28;;
27313;SDS011;14800;48.174;9.798;2023-07-08T10:18:52;4.53;;;2.97;;
27313;SDS011;14800;48.174;9.798;2023-07-08T10:35:21;4.65;;;2.65;;
27313;SDS011;14800;48.174;9.798;2023-07-08T10:38:02;4.53;;;2.92;;
27313;SDS011;14800;48.174;9.798;2023-07-08T10:40:54;3.72;;;2.30;;
27313;SDS011;14800;48.174;9.798;2023-07-08T10:57:18;2.80;;;2.40;;
27313;SDS011;14800;48.174;9.798;2023-07-08T11:00:16;4.22;;;2.17;;
27313;SDS011;14800;48.174;9.798;2023-07-08T11:05:44;8.93;;;2.13;;
27313;SDS011;14800;48.174;9.798;2023-07-08T11:10:52;4.47;;;2.00;;
27313;SDS011;14800;48.174;9.798;2023-07-08T11:13:29;2.00;;;1.48;;
27313;SDS011;14800;48.174;9.798;2023-07-08T11:16:00;2.00;;;1.38;;
27313;SDS011;14800;48.174;9.798;2023-07-08T11:21:07;2.85;;;1.60;;
27313;SDS011;14800;48.174;9.798;2023-07-08T11:23:50;2.25;;;1.20;;
27313;SDS011;14800;48.174;9.798;2023-07-08T11:28:47;1.95;;;1.40;;
27313;SDS011;14800;48.174;9.798;2023-07-08T11:31:16;1.92;;;1.33;;
27313;SDS011;14800;48.174;9.798;2023-07-08T11:33:42;3.08;;;1.67;;
27313;SDS011;14800;48.174;9.798;2023-07-08T11:36:10;3.63;;;1.40;;
27313;SDS011;14800;48.174;9.798;2023-07-08T11:38:37;3.08;;;1.25;;
27313;SDS011;14800;48.174;9.798;2023-07-08T11:41:19;2.53;;;1.20;;
27313;SDS011;14800;48.174;9.798;2023-07-08T11:43:49;3.25;;;1.40;;
27313;SDS011;14800;48.174;9.798;2023-07-08T11:46:21;1.52;;;1.40;;
27313;SDS011;14800;48.174;9.798;2023-07-08T11:48:54;2.20;;;1.35;;
27313;SDS011;14800;48.174;9.798;2023-07-08T11:51:32;1.58;;;1.10;;
27313;SDS011;14800;48.174;9.798;2023-07-08T11:56:46;2.45;;;1.30;;
27313;SDS011;14800;48.174;9.798;2023-07-08T11:59:22;1.83;;;1.30;;
27313;SDS011;14800;48.174;9.798;2023-07-08T12:07:42;1.73;;;1.20;;
27313;SDS011;14800;48.174;9.798;2023-07-08T12:12:44;2.33;;;1.40;;
27313;SDS011;14800;48.174;9.798;2023-07-08T12:15:24;2.88;;;1.20;;
27313;SDS011;14800;48.174;9.798;2023-07-08T12:23:12;2.53;;;1.58;;
27313;SDS011;14800;48.174;9.798;2023-07-08T12:25:40;2.10;;;1.30;;
27313;SDS011;14800;48.174;9.798;2023-07-08T12:28:06;1.98;;;1.55;;
27313;SDS011;14800;48.174;9.798;2023-07-08T12:30:32;3.40;;;1.40;;
27313;SDS011;14800;48.174;9.798;2023-07-08T12:32:59;2.05;;;1.30;;
27313;SDS011;14800;48.174;9.798;2023-07-08T12:35:29;2.75;;;1.30;;
27313;SDS011;14800;48.174;9.798;2023-07-08T12:38:40;1.88;;;1.23;;
27313;SDS011;14800;48.174;9.798;2023-07-08T12:40:55;2.35;;;1.25;;
27313;SDS011;14800;48.174;9.798;2023-07-08T12:43:25;4.13;;;1.00;;
27313;SDS011;14800;48.174;9.798;2023-07-08T12:45:51;1.55;;;1.45;;
27313;SDS011;14800;48.174;9.798;2023-07-08T12:48:16;2.67;;;1.30;;
27313;SDS011;14800;48.174;9.798;2023-07-08T12:50:42;1.80;;;1.40;;
27313;SDS011;14800;48.174;9.798;2023-07-08T12:53:08;2.97;;;1.40;;
27313;SDS011;14800;48.174;9.798;2023-07-08T12:55:36;3.25;;;1.55;;
27313;SDS011;14800;48.174;9.798;2023-07-08T12:58:03;1.83;;;1.20;;
27313;SDS011;14800;48.174;9.798;2023-07-08T13:00:31;2.47;;;1.30;;
27313;SDS011;14800;48.174;9.798;2023-07-08T13:05:27;1.90;;;1.27;;
27313;SDS011;14800;48.174;9.798;2023-07-08T13:07:53;2.22;;;1.17;;
27313;SDS011;14800;48.174;9.798;2023-07-08T13:10:20;2.42;;;1.30;;
27313;SDS011;14800;48.174;9.798;2023-07-08T13:12:49;3.13;;;1.30;;
27313;SDS011;14800;48.174;9.798;2023-07-08T13:15:23;2.63;;;1.20;;
27313;SDS011;14800;48.174;9.798;2023-07-08T13:17:58;2.03;;;1.30;;
27313;SDS011;14800;48.174;9.798;2023-07-08T13:20:23;1.73;;;1.10;;
27313;SDS011;14800;48.174;9.798;2023-07-08T13:22:54;1.60;;;1.25;;
27313;SDS011;14800;48.174;9.798;2023-07-08T13:25:25;2.40;;;1.35;;
27313;SDS011;14800;48.174;9.798;2023-07-08T13:27:56;2.95;;;1.50;;
27313;SDS011;14800;48.174;9.798;2023-07-08T13:30:52;2.80;;;1.45;;
27313;SDS011;14800;48.174;9.798;2023-07-08T13:33:20;2.45;;;1.33;;
27313;SDS011;14800;48.174;9.798;2023-07-08T13:35:47;2.05;;;1.40;;
27313;SDS011;14800;48.174;9.798;2023-07-08T13:38:15;1.67;;;1.30;;
27313;SDS011;14800;48.174;9.798;2023-07-08T13:40:49;4.18;;;1.52;;
27313;SDS011;14800;48.174;9.798;2023-07-08T13:43:26;2.47;;;1.40;;
27313;SDS011;14800;48.174;9.798;2023-07-08T13:45:54;1.38;;;1.20;;
27313;SDS011;14800;48.174;9.798;2023-07-08T13:51:16;2.90;;;1.38;;
27313;SDS011;14800;48.174;9.798;2023-07-08T13:53:50;2.72;;;1.60;;
27313;SDS011;14800;48.174;9.798;2023-07-08T13:59:00;1.63;;;1.08;;
27313;SDS011;14800;48.174;9.798;2023-07-08T14:01:31;2.88;;;1.40;;
27313;SDS011;14800;48.174;9.798;2023-07-08T14:03:58;2.35;;;1.27;;
27313;SDS011;14800;48.174;9.798;2023-07-08T14:06:35;2.17;;;1.35;;
27313;SDS011;14800;48.174;9.798;2023-07-08T14:11:43;1.63;;;1.20;;
27313;SDS011;14800;48.174;9.798;2023-07-08T14:14:09;1.98;;;1.27;;
27313;SDS011;14800;48.174;9.798;2023-07-08T14:16:39;1.63;;;1.40;;
27313;SDS011;14800;48.174;9.798;2023-07-08T14:19:10;3.38;;;1.38;;
27313;SDS011;14800;48.174;9.798;2023-07-08T14:21:39;2.95;;;1.40;;
27313;SDS011;14800;48.174;9.798;2023-07-08T14:24:11;3.00;;;1.10;;
27313;SDS011;14800;48.174;9.798;2023-07-08T14:26:42;2.38;;;1.15;;
27313;SDS011;14800;48.174;9.798;2023-07-08T14:29:09;1.50;;;1.10;;
27313;SDS011;14800;48.174;9.798;2023-07-08T14:31:35;2.47;;;1.45;;
27313;SDS011;14800;48.174;9.798;2023-07-08T14:34:03;4.28;;;1.45;;
27313;SDS011;14800;48.174;9.798;2023-07-08T14:36:31;4.07;;;1.33;;
27313;SDS011;14800;48.174;9.798;2023-07-08T14:38:57;2.08;;;1.38;;
27313;SDS011;14800;48.174;9.798;2023-07-08T14:41:23;1.60;;;1.42;;
27313;SDS011;14800;48.174;9.798;2023-07-08T14:43:49;3.70;;;1.40;;
27313;SDS011;14800;48.174;9.798;2023-07-08T14:46:15;1.75;;;1.50;;
27313;SDS011;14800;48.174;9.798;2023-07-08T14:48:41;1.88;;;1.40;;
27313;SDS011;14800;48.174;9.798;2023-07-08T14:51:07;1.50;;;1.35;;
27313;SDS011;14800;48.174;9.798;2023-07-08T14:53:33;1.48;;;1.23;;
27313;SDS011;14800;48.174;9.798;2023-07-08T14:55:58;4.68;;;1.50;;
27313;SDS011;14800;48.174;9.798;2023-07-08T14:58:30;2.05;;;1.27;;
27313;SDS011;14800;48.174;9.798;2023-07-08T15:01:01;1.30;;;1.20;;
27313;SDS011;14800;48.174;9.798;2023-07-08T15:03:36;1.90;;;1.27;;
27313;SDS011;14800;48.174;9.798;2023-07-08T15:06:02;1.40;;;1.13;;
27313;SDS011;14800;48.174;9.798;2023-07-08T15:08:28;2.65;;;1.70;;
27313;SDS011;14800;48.174;9.798;2023-07-08T15:10:53;2.42;;;1.38;;
27313;SDS011;14800;48.174;9.798;2023-07-08T15:13:19;1.67;;;1.30;;
27313;SDS011;14800;48.174;9.798;2023-07-08T15:15:50;2.20;;;1.50;;
27313;SDS011;14800;48.174;9.798;2023-07-08T15:18:16;1.70;;;1.10;;
27313;SDS011;14800;48.174;9.798;2023-07-08T15:20:44;1.95;;;1.50;;
27313;SDS011;14800;48.174;9.798;2023-07-08T15:23:10;2.72;;;1.40;;
27313;SDS011;14800;48.174;9.798;2023-07-08T15:25:37;2.15;;;1.40;;
27313;SDS011;14800;48.174;9.798;2023-07-08T15:28:07;2.50;;;1.50;;
27313;SDS011;14800;48.174;9.798;2023-07-08T15:30:41;4.93;;;1.75;;
27313;SDS011;14800;48.174;9.798;2023-07-08T15:33:08;2.53;;;1.35;;
27313;SDS011;14800;48.174;9.798;2023-07-08T15:35:34;4.47;;;1.70;;
27313;SDS011;14800;48.174;9.798;2023-07-08T15:38:00;4.28;;;1.45;;
27313;SDS011;14800;48.174;9.798;2023-07-08T15:40:28;1.67;;;1.10;;
27313;SDS011;14800;48.174;9.798;2023-07-08T15:42:56;1.80;;;1.48;;
27313;SDS011;14800;48.174;9.798;2023-07-08T15:45:28;2.20;;;1.15;;
27313;SDS011;14800;48.174;9.798;2023-07-08T15:47:58;2.88;;;1.23;;
27313;SDS011;14800;48.174;9.798;2023-07-08T15:50:25;3.00;;;1.27;;
27313;SDS011;14800;48.174;9.798;2023-07-08T15:52:52;4.07;;;1.20;;
27313;SDS011;14800;48.174;9.798;2023-07-08T15:55:28;1.73;;;1.30;;
27313;SDS011;14800;48.174;9.798;2023-07-08T15:58:06;1.48;;;1.20;;
27313;SDS011;14800;48.174;9.798;2023-07-08T16:00:37;1.73;;;1.30;;
27313;SDS011;14800;48.174;9.798;2023-07-08T16:03:06;2.08;;;1.17;;
27313;SDS011;14800;48.174;9.798;2023-07-08T16:05:35;3.30;;;1.50;;
27313;SDS011;14800;48.174;9.798;2023-07-08T16:08:01;2.47;;;1.30;;
27313;SDS011;14800;48.174;9.798;2023-07-08T16:10:30;1.75;;;1.20;;
27313;SDS011;14800;48.174;9.798;2023-07-08T16:12:57;3.85;;;1.75;;
27313;SDS011;14800;48.174;9.798;2023-07-08T16:17:56;1.92;;;1.30;;
27313;SDS011;14800;48.174;9.798;2023-07-08T16:20:23;4.30;;;1.70;;
27313;SDS011;14800;48.174;9.798;2023-07-08T16:22:50;2.10;;;1.30;;
27313;SDS011;14800;48.174;9.798;2023-07-08T16:25:17;2.10;;;1.60;;